sensor_id;sensor_type;location;lat;lon;timestamp;temperature;humidity
4749;DHT22;2388;53.582;9.962;2022-09-09T00:01:30;15.40;99.90
4749;DHT22;2388;53.582;9.962;2022-09-09T00:09:49;15.40;99.90
4749;DHT22;2388;53.582;9.962;2022-09-09T00:12:25;15.40;99.90
4749;DHT22;2388;53.582;9.962;2022-09-09T00:15:12;15.40;99.90
4749;DHT22;2388;53.582;9.962;2022-09-09T00:17:56;15.40;99.90
4749;DHT22;2388;53.582;9.962;2022-09-09T00:20:35;15.40;99.90
4749;DHT22;2388;53.582;9.962;2022-09-09T00:25:40;15.40;99.90
4749;DHT22;2388;53.582;9.962;2022-09-09T00:28:18;15.40;99.90
4749;DHT22;2388;53.582;9.962;2022-09-09T00:30:43;15.40;99.90
4749;DHT22;2388;53.582;9.962;2022-09-09T00:33:13;15.50;99.90
4749;DHT22;2388;53.582;9.962;2022-09-09T00:35:47;15.40;99.90
4749;DHT22;2388;53.582;9.962;2022-09-09T00:38:18;15.40;99.90
4749;DHT22;2388;53.582;9.962;2022-09-09T00:41:01;15.40;99.90
4749;DHT22;2388;53.582;9.962;2022-09-09T00:43:30;15.40;99.90
4749;DHT22;2388;53.582;9.962;2022-09-09T00:46:10;15.40;99.90
4749;DHT22;2388;53.582;9.962;2022-09-09T00:57:29;15.40;99.90
4749;DHT22;2388;53.582;9.962;2022-09-09T01:00:20;15.40;99.90
4749;DHT22;2388;53.582;9.962;2022-09-09T01:06:10;15.40;99.90
4749;DHT22;2388;53.582;9.962;2022-09-09T01:11:02;15.40;99.90
4749;DHT22;2388;53.582;9.962;2022-09-09T01:13:33;15.50;99.90
4749;DHT22;2388;53.582;9.962;2022-09-09T01:16:01;15.50;99.90
4749;DHT22;2388;53.582;9.962;2022-09-09T01:18:34;15.50;99.90
4749;DHT22;2388;53.582;9.962;2022-09-09T01:24:26;15.50;99.90
4749;DHT22;2388;53.582;9.962;2022-09-09T01:27:00;15.40;99.90
4749;DHT22;2388;53.582;9.962;2022-09-09T01:29:27;15.40;99.90
4749;DHT22;2388;53.582;9.962;2022-09-09T01:31:57;15.40;99.90
4749;DHT22;2388;53.582;9.962;2022-09-09T01:34:26;15.40;99.90
4749;DHT22;2388;53.582;9.962;2022-09-09T01:36:59;15.40;99.90
4749;DHT22;2388;53.582;9.962;2022-09-09T01:39:27;15.40;99.90
4749;DHT22;2388;53.582;9.962;2022-09-09T01:41:55;15.40;99.90
4749;DHT22;2388;53.582;9.962;2022-09-09T01:44:21;15.40;99.90
4749;DHT22;2388;53.582;9.962;2022-09-09T01:46:47;15.40;99.90
4749;DHT22;2388;53.582;9.962;2022-09-09T01:49:13;15.30;99.90
4749;DHT22;2388;53.582;9.962;2022-09-09T01:51:39;15.30;99.90
4749;DHT22;2388;53.582;9.962;2022-09-09T01:54:06;15.30;99.90
4749;DHT22;2388;53.582;9.962;2022-09-09T01:56:57;15.30;99.90
4749;DHT22;2388;53.582;9.962;2022-09-09T02:00:07;15.20;99.90
4749;DHT22;2388;53.582;9.962;2022-09-09T02:02:55;15.20;99.90
4749;DHT22;2388;53.582;9.962;2022-09-09T02:05:40;15.20;99.90
4749;DHT22;2388;53.582;9.962;2022-09-09T02:11:03;15.20;99.90
4749;DHT22;2388;53.582;9.962;2022-09-09T02:13:26;15.20;99.90
4749;DHT22;2388;53.582;9.962;2022-09-09T02:16:42;15.10;99.90
4749;DHT22;2388;53.582;9.962;2022-09-09T02:21:35;15.10;99.90
4749;DHT22;2388;53.582;9.962;2022-09-09T02:24:05;15.10;99.90
4749;DHT22;2388;53.582;9.962;2022-09-09T02:26:33;15.10;99.90
4749;DHT22;2388;53.582;9.962;2022-09-09T02:29:03;15.10;99.90
4749;DHT22;2388;53.582;9.962;2022-09-09T02:31:31;15.00;99.90
4749;DHT22;2388;53.582;9.962;2022-09-09T02:34:01;15.00;99.90
4749;DHT22;2388;53.582;9.962;2022-09-09T02:36:31;15.00;99.90
4749;DHT22;2388;53.582;9.962;2022-09-09T02:38:58;15.00;99.90
4749;DHT22;2388;53.582;9.962;2022-09-09T02:41:33;15.00;99.90
4749;DHT22;2388;53.582;9.962;2022-09-09T02:43:59;15.00;99.90
4749;DHT22;2388;53.582;9.962;2022-09-09T02:52:05;15.00;99.90
4749;DHT22;2388;53.582;9.962;2022-09-09T02:54:33;14.90;99.90
4749;DHT22;2388;53.582;9.962;2022-09-09T02:57:08;14.90;99.90
4749;DHT22;2388;53.582;9.962;2022-09-09T02:59:36;14.90;99.90
4749;DHT22;2388;53.582;9.962;2022-09-09T03:02:02;14.90;99.90
4749;DHT22;2388;53.582;9.962;2022-09-09T03:04:28;14.90;99.90
4749;DHT22;2388;53.582;9.962;2022-09-09T03:06:54;14.90;99.90
4749;DHT22;2388;53.582;9.962;2022-09-09T03:09:19;14.90;99.90
4749;DHT22;2388;53.582;9.962;2022-09-09T03:11:45;14.90;99.90
4749;DHT22;2388;53.582;9.962;2022-09-09T03:14:10;14.90;99.90
4749;DHT22;2388;53.582;9.962;2022-09-09T03:16:36;14.90;99.90
4749;DHT22;2388;53.582;9.962;2022-09-09T03:19:02;14.90;99.90
4749;DHT22;2388;53.582;9.962;2022-09-09T03:21:28;14.90;99.90
4749;DHT22;2388;53.582;9.962;2022-09-09T03:23:53;14.90;99.90
4749;DHT22;2388;53.582;9.962;2022-09-09T03:26:19;14.80;99.90
4749;DHT22;2388;53.582;9.962;2022-09-09T03:28:45;14.90;99.90
4749;DHT22;2388;53.582;9.962;2022-09-09T03:31:11;14.90;99.90
4749;DHT22;2388;53.582;9.962;2022-09-09T03:33:37;14.80;99.90
4749;DHT22;2388;53.582;9.962;2022-09-09T03:36:04;14.80;99.90
4749;DHT22;2388;53.582;9.962;2022-09-09T03:38:30;14.80;99.90
4749;DHT22;2388;53.582;9.962;2022-09-09T03:40:57;14.80;99.90
4749;DHT22;2388;53.582;9.962;2022-09-09T03:43:26;14.80;99.90
4749;DHT22;2388;53.582;9.962;2022-09-09T03:45:53;14.80;99.90
4749;DHT22;2388;53.582;9.962;2022-09-09T03:48:22;14.80;99.90
4749;DHT22;2388;53.582;9.962;2022-09-09T03:50:52;14.70;99.90
4749;DHT22;2388;53.582;9.962;2022-09-09T03:53:19;14.80;99.90
4749;DHT22;2388;53.582;9.962;2022-09-09T03:55:50;14.80;99.90
4749;DHT22;2388;53.582;9.962;2022-09-09T03:58:21;14.70;99.90
4749;DHT22;2388;53.582;9.962;2022-09-09T04:00:57;14.70;99.90
4749;DHT22;2388;53.582;9.962;2022-09-09T04:03:24;14.70;99.90
4749;DHT22;2388;53.582;9.962;2022-09-09T04:05:51;14.70;99.90
4749;DHT22;2388;53.582;9.962;2022-09-09T04:08:17;14.70;99.90
4749;DHT22;2388;53.582;9.962;2022-09-09T04:10:45;14.70;99.90
4749;DHT22;2388;53.582;9.962;2022-09-09T04:13:12;14.70;99.90
4749;DHT22;2388;53.582;9.962;2022-09-09T04:15:39;14.60;99.90
4749;DHT22;2388;53.582;9.962;2022-09-09T04:18:04;14.60;99.90
4749;DHT22;2388;53.582;9.962;2022-09-09T04:20:31;14.60;99.90
4749;DHT22;2388;53.582;9.962;2022-09-09T04:22:56;14.50;99.90
4749;DHT22;2388;53.582;9.962;2022-09-09T04:25:22;14.60;99.90
4749;DHT22;2388;53.582;9.962;2022-09-09T04:27:47;14.50;99.90
4749;DHT22;2388;53.582;9.962;2022-09-09T04:30:18;14.50;99.90
4749;DHT22;2388;53.582;9.962;2022-09-09T04:32:43;14.50;99.90
4749;DHT22;2388;53.582;9.962;2022-09-09T04:35:09;14.50;99.90
4749;DHT22;2388;53.582;9.962;2022-09-09T04:37:34;14.50;99.90
4749;DHT22;2388;53.582;9.962;2022-09-09T04:40:00;14.50;99.90
4749;DHT22;2388;53.582;9.962;2022-09-09T04:42:27;14.50;99.90
4749;DHT22;2388;53.582;9.962;2022-09-09T04:44:53;14.50;99.90
4749;DHT22;2388;53.582;9.962;2022-09-09T04:47:19;14.50;99.90
4749;DHT22;2388;53.582;9.962;2022-09-09T04:49:45;14.50;99.90
4749;DHT22;2388;53.582;9.962;2022-09-09T04:52:10;14.50;99.90
4749;DHT22;2388;53.582;9.962;2022-09-09T04:54:36;14.50;99.90
4749;DHT22;2388;53.582;9.962;2022-09-09T04:57:02;14.60;99.90
4749;DHT22;2388;53.582;9.962;2022-09-09T04:59:28;14.60;99.90
4749;DHT22;2388;53.582;9.962;2022-09-09T05:01:53;14.60;99.90
4749;DHT22;2388;53.582;9.962;2022-09-09T05:04:20;14.60;99.90
4749;DHT22;2388;53.582;9.962;2022-09-09T05:06:46;14.60;99.90
4749;DHT22;2388;53.582;9.962;2022-09-09T05:09:11;14.60;99.90
4749;DHT22;2388;53.582;9.962;2022-09-09T05:11:37;14.60;99.90
4749;DHT22;2388;53.582;9.962;2022-09-09T05:14:03;14.60;99.90
4749;DHT22;2388;53.582;9.962;2022-09-09T05:16:29;14.80;99.90
4749;DHT22;2388;53.582;9.962;2022-09-09T05:18:55;14.90;99.90
4749;DHT22;2388;53.582;9.962;2022-09-09T05:21:23;14.90;99.90
4749;DHT22;2388;53.582;9.962;2022-09-09T05:23:50;14.80;99.90
4749;DHT22;2388;53.582;9.962;2022-09-09T05:26:18;14.80;99.90
4749;DHT22;2388;53.582;9.962;2022-09-09T05:28:44;14.70;99.90
4749;DHT22;2388;53.582;9.962;2022-09-09T05:31:12;14.70;99.90
4749;DHT22;2388;53.582;9.962;2022-09-09T05:33:38;14.70;99.90
4749;DHT22;2388;53.582;9.962;2022-09-09T05:36:07;14.70;99.90
4749;DHT22;2388;53.582;9.962;2022-09-09T05:38:34;14.70;99.90
4749;DHT22;2388;53.582;9.962;2022-09-09T05:41:01;14.70;99.90
4749;DHT22;2388;53.582;9.962;2022-09-09T05:43:28;14.70;99.90
4749;DHT22;2388;53.582;9.962;2022-09-09T05:46:04;14.70;99.90
4749;DHT22;2388;53.582;9.962;2022-09-09T05:48:32;14.70;99.90
4749;DHT22;2388;53.582;9.962;2022-09-09T05:50:58;14.70;99.90
4749;DHT22;2388;53.582;9.962;2022-09-09T05:53:25;14.70;99.90
4749;DHT22;2388;53.582;9.962;2022-09-09T05:55:57;14.80;99.90
4749;DHT22;2388;53.582;9.962;2022-09-09T05:58:23;14.80;99.90
4749;DHT22;2388;53.582;9.962;2022-09-09T06:00:49;14.80;99.90
4749;DHT22;2388;53.582;9.962;2022-09-09T06:03:15;14.80;99.90
4749;DHT22;2388;53.582;9.962;2022-09-09T06:05:42;14.80;99.90
4749;DHT22;2388;53.582;9.962;2022-09-09T06:08:07;14.90;99.90
4749;DHT22;2388;53.582;9.962;2022-09-09T06:10:33;14.90;99.90
4749;DHT22;2388;53.582;9.962;2022-09-09T06:12:59;14.90;99.90
4749;DHT22;2388;53.582;9.962;2022-09-09T06:15:24;15.00;99.90
4749;DHT22;2388;53.582;9.962;2022-09-09T06:17:54;15.00;99.90
4749;DHT22;2388;53.582;9.962;2022-09-09T06:20:21;15.00;99.90
4749;DHT22;2388;53.582;9.962;2022-09-09T06:22:47;14.90;99.90
4749;DHT22;2388;53.582;9.962;2022-09-09T06:25:14;15.00;99.90
4749;DHT22;2388;53.582;9.962;2022-09-09T06:27:39;15.00;99.90
4749;DHT22;2388;53.582;9.962;2022-09-09T06:30:06;15.00;99.90
4749;DHT22;2388;53.582;9.962;2022-09-09T06:32:32;15.00;99.90
4749;DHT22;2388;53.582;9.962;2022-09-09T06:34:59;15.00;99.90
4749;DHT22;2388;53.582;9.962;2022-09-09T06:37:26;15.00;99.90
4749;DHT22;2388;53.582;9.962;2022-09-09T06:39:52;15.00;99.90
4749;DHT22;2388;53.582;9.962;2022-09-09T06:42:20;15.10;99.90
4749;DHT22;2388;53.582;9.962;2022-09-09T06:44:45;15.10;99.90
4749;DHT22;2388;53.582;9.962;2022-09-09T06:47:11;15.10;99.90
4749;DHT22;2388;53.582;9.962;2022-09-09T06:49:36;15.10;99.90
4749;DHT22;2388;53.582;9.962;2022-09-09T06:52:02;15.10;99.90
4749;DHT22;2388;53.582;9.962;2022-09-09T06:54:27;15.10;99.90
4749;DHT22;2388;53.582;9.962;2022-09-09T06:56:53;15.10;99.90
4749;DHT22;2388;53.582;9.962;2022-09-09T06:59:19;15.20;99.90
4749;DHT22;2388;53.582;9.962;2022-09-09T07:01:44;15.30;99.90
4749;DHT22;2388;53.582;9.962;2022-09-09T07:04:10;15.20;99.90
4749;DHT22;2388;53.582;9.962;2022-09-09T07:06:38;15.30;99.90
4749;DHT22;2388;53.582;9.962;2022-09-09T07:09:08;15.30;99.90
4749;DHT22;2388;53.582;9.962;2022-09-09T07:11:38;15.40;99.90
4749;DHT22;2388;53.582;9.962;2022-09-09T07:14:04;15.40;99.90
4749;DHT22;2388;53.582;9.962;2022-09-09T07:16:29;15.50;99.90
4749;DHT22;2388;53.582;9.962;2022-09-09T07:18:56;15.60;99.90
4749;DHT22;2388;53.582;9.962;2022-09-09T07:21:23;15.60;99.90
4749;DHT22;2388;53.582;9.962;2022-09-09T07:23:50;15.70;99.90
4749;DHT22;2388;53.582;9.962;2022-09-09T07:26:20;15.70;99.90
4749;DHT22;2388;53.582;9.962;2022-09-09T07:28:46;15.70;99.90
4749;DHT22;2388;53.582;9.962;2022-09-09T07:31:18;15.80;99.90
4749;DHT22;2388;53.582;9.962;2022-09-09T07:33:44;15.80;99.90
4749;DHT22;2388;53.582;9.962;2022-09-09T07:36:15;15.80;99.90
4749;DHT22;2388;53.582;9.962;2022-09-09T07:38:46;15.90;99.90
4749;DHT22;2388;53.582;9.962;2022-09-09T07:41:16;15.90;99.90
4749;DHT22;2388;53.582;9.962;2022-09-09T07:43:44;15.90;99.90
4749;DHT22;2388;53.582;9.962;2022-09-09T07:46:11;16.00;99.90
4749;DHT22;2388;53.582;9.962;2022-09-09T07:48:38;16.00;99.90
4749;DHT22;2388;53.582;9.962;2022-09-09T07:51:09;16.10;99.90
4749;DHT22;2388;53.582;9.962;2022-09-09T07:53:37;16.20;99.90
4749;DHT22;2388;53.582;9.962;2022-09-09T07:56:08;16.20;99.90
4749;DHT22;2388;53.582;9.962;2022-09-09T07:58:38;16.20;99.90
4749;DHT22;2388;53.582;9.962;2022-09-09T08:03:34;16.20;99.90
4749;DHT22;2388;53.582;9.962;2022-09-09T08:06:01;16.30;99.90
4749;DHT22;2388;53.582;9.962;2022-09-09T08:08:28;16.30;99.90
4749;DHT22;2388;53.582;9.962;2022-09-09T08:10:53;16.30;99.90
4749;DHT22;2388;53.582;9.962;2022-09-09T08:13:19;16.30;99.90
4749;DHT22;2388;53.582;9.962;2022-09-09T08:15:44;16.40;99.90
4749;DHT22;2388;53.582;9.962;2022-09-09T08:18:10;16.40;99.90
4749;DHT22;2388;53.582;9.962;2022-09-09T08:20:36;16.40;99.90
4749;DHT22;2388;53.582;9.962;2022-09-09T08:23:02;16.50;99.90
4749;DHT22;2388;53.582;9.962;2022-09-09T08:25:28;16.50;99.90
4749;DHT22;2388;53.582;9.962;2022-09-09T08:27:54;16.50;99.90
4749;DHT22;2388;53.582;9.962;2022-09-09T08:30:19;16.50;99.90
4749;DHT22;2388;53.582;9.962;2022-09-09T08:32:45;16.50;99.90
4749;DHT22;2388;53.582;9.962;2022-09-09T08:35:10;16.60;99.90
4749;DHT22;2388;53.582;9.962;2022-09-09T08:37:36;16.60;99.90
4749;DHT22;2388;53.582;9.962;2022-09-09T08:40:02;16.60;99.90
4749;DHT22;2388;53.582;9.962;2022-09-09T08:42:35;16.60;99.90
4749;DHT22;2388;53.582;9.962;2022-09-09T08:45:12;16.70;99.90
4749;DHT22;2388;53.582;9.962;2022-09-09T08:47:51;16.80;99.90
4749;DHT22;2388;53.582;9.962;2022-09-09T08:50:29;16.80;99.90
4749;DHT22;2388;53.582;9.962;2022-09-09T08:53:04;16.80;99.90
4749;DHT22;2388;53.582;9.962;2022-09-09T08:55:51;16.80;99.90
4749;DHT22;2388;53.582;9.962;2022-09-09T08:58:23;16.90;99.90
4749;DHT22;2388;53.582;9.962;2022-09-09T09:01:12;16.90;99.90
4749;DHT22;2388;53.582;9.962;2022-09-09T09:03:53;16.90;99.90
4749;DHT22;2388;53.582;9.962;2022-09-09T09:09:38;16.90;99.90
4749;DHT22;2388;53.582;9.962;2022-09-09T09:12:16;16.90;99.90
4749;DHT22;2388;53.582;9.962;2022-09-09T09:14:45;17.00;99.90
4749;DHT22;2388;53.582;9.962;2022-09-09T09:17:14;17.00;99.90
4749;DHT22;2388;53.582;9.962;2022-09-09T09:19:42;17.10;99.90
4749;DHT22;2388;53.582;9.962;2022-09-09T09:22:19;17.10;99.90
4749;DHT22;2388;53.582;9.962;2022-09-09T09:27:40;17.20;99.90
4749;DHT22;2388;53.582;9.962;2022-09-09T09:30:20;17.20;99.90
4749;DHT22;2388;53.582;9.962;2022-09-09T09:33:18;17.30;99.90
4749;DHT22;2388;53.582;9.962;2022-09-09T09:35:45;17.40;99.90
4749;DHT22;2388;53.582;9.962;2022-09-09T09:38:24;17.40;99.90
4749;DHT22;2388;53.582;9.962;2022-09-09T09:40:52;17.40;99.90
4749;DHT22;2388;53.582;9.962;2022-09-09T09:43:24;17.40;99.90
4749;DHT22;2388;53.582;9.962;2022-09-09T09:45:50;17.40;99.90
4749;DHT22;2388;53.582;9.962;2022-09-09T09:48:16;17.40;99.90
4749;DHT22;2388;53.582;9.962;2022-09-09T09:50:49;17.50;99.90
4749;DHT22;2388;53.582;9.962;2022-09-09T09:55:58;17.50;99.90
4749;DHT22;2388;53.582;9.962;2022-09-09T09:58:26;17.50;99.90
4749;DHT22;2388;53.582;9.962;2022-09-09T10:00:52;17.60;99.90
4749;DHT22;2388;53.582;9.962;2022-09-09T10:03:30;17.60;99.90
4749;DHT22;2388;53.582;9.962;2022-09-09T10:05:56;17.70;99.90
4749;DHT22;2388;53.582;9.962;2022-09-09T10:08:27;17.80;99.90
4749;DHT22;2388;53.582;9.962;2022-09-09T10:13:53;17.90;99.90
4749;DHT22;2388;53.582;9.962;2022-09-09T10:16:46;18.00;99.90
4749;DHT22;2388;53.582;9.962;2022-09-09T10:19:32;18.10;99.90
4749;DHT22;2388;53.582;9.962;2022-09-09T10:22:28;18.20;99.90
4749;DHT22;2388;53.582;9.962;2022-09-09T10:33:47;18.30;99.90
4749;DHT22;2388;53.582;9.962;2022-09-09T10:36:25;18.30;99.90
4749;DHT22;2388;53.582;9.962;2022-09-09T10:39:26;18.30;99.90
4749;DHT22;2388;53.582;9.962;2022-09-09T10:42:05;18.40;99.90
4749;DHT22;2388;53.582;9.962;2022-09-09T10:44:51;18.50;99.90
4749;DHT22;2388;53.582;9.962;2022-09-09T10:50:55;18.70;99.90
4749;DHT22;2388;53.582;9.962;2022-09-09T10:53:42;18.80;99.90
4749;DHT22;2388;53.582;9.962;2022-09-09T10:56:14;18.80;99.90
4749;DHT22;2388;53.582;9.962;2022-09-09T10:58:47;18.80;99.90
4749;DHT22;2388;53.582;9.962;2022-09-09T11:01:36;18.80;99.90
4749;DHT22;2388;53.582;9.962;2022-09-09T11:04:13;18.90;99.90
4749;DHT22;2388;53.582;9.962;2022-09-09T11:06:47;19.00;99.90
4749;DHT22;2388;53.582;9.962;2022-09-09T11:09:16;19.10;99.90
4749;DHT22;2388;53.582;9.962;2022-09-09T11:11:52;19.10;99.90
4749;DHT22;2388;53.582;9.962;2022-09-09T11:17:33;19.10;99.90
4749;DHT22;2388;53.582;9.962;2022-09-09T11:20:01;19.10;99.90
4749;DHT22;2388;53.582;9.962;2022-09-09T11:22:37;19.10;99.90
4749;DHT22;2388;53.582;9.962;2022-09-09T11:25:21;19.10;99.90
4749;DHT22;2388;53.582;9.962;2022-09-09T11:28:50;19.10;99.90
4749;DHT22;2388;53.582;9.962;2022-09-09T11:33:58;19.40;99.90
4749;DHT22;2388;53.582;9.962;2022-09-09T11:36:56;19.50;99.90
4749;DHT22;2388;53.582;9.962;2022-09-09T11:39:53;19.60;99.90
4749;DHT22;2388;53.582;9.962;2022-09-09T11:42:25;19.70;99.90
4749;DHT22;2388;53.582;9.962;2022-09-09T11:44:51;19.70;99.90
4749;DHT22;2388;53.582;9.962;2022-09-09T11:47:30;19.80;99.90
4749;DHT22;2388;53.582;9.962;2022-09-09T11:52:41;19.80;99.90
4749;DHT22;2388;53.582;9.962;2022-09-09T11:58:01;19.80;99.90
4749;DHT22;2388;53.582;9.962;2022-09-09T12:00:48;19.70;99.90
4749;DHT22;2388;53.582;9.962;2022-09-09T12:03:39;19.60;99.90
4749;DHT22;2388;53.582;9.962;2022-09-09T12:08:43;19.50;99.90
4749;DHT22;2388;53.582;9.962;2022-09-09T12:11:10;19.40;99.90
4749;DHT22;2388;53.582;9.962;2022-09-09T12:13:36;19.40;99.90
4749;DHT22;2388;53.582;9.962;2022-09-09T12:16:02;19.30;99.90
4749;DHT22;2388;53.582;9.962;2022-09-09T12:18:38;19.40;99.90
4749;DHT22;2388;53.582;9.962;2022-09-09T12:21:36;19.30;99.90
4749;DHT22;2388;53.582;9.962;2022-09-09T12:24:13;19.30;99.90
4749;DHT22;2388;53.582;9.962;2022-09-09T12:26:59;19.30;99.90
4749;DHT22;2388;53.582;9.962;2022-09-09T12:29:49;19.30;99.90
4749;DHT22;2388;53.582;9.962;2022-09-09T12:32:22;19.30;99.90
4749;DHT22;2388;53.582;9.962;2022-09-09T12:34:54;19.30;99.90
4749;DHT22;2388;53.582;9.962;2022-09-09T12:37:32;19.40;99.90
4749;DHT22;2388;53.582;9.962;2022-09-09T12:40:00;19.40;99.90
4749;DHT22;2388;53.582;9.962;2022-09-09T12:42:26;19.40;99.90
4749;DHT22;2388;53.582;9.962;2022-09-09T12:44:57;19.40;99.90
4749;DHT22;2388;53.582;9.962;2022-09-09T12:50:36;19.40;99.90
4749;DHT22;2388;53.582;9.962;2022-09-09T12:53:24;19.40;99.90
4749;DHT22;2388;53.582;9.962;2022-09-09T12:56:18;19.40;99.90
4749;DHT22;2388;53.582;9.962;2022-09-09T12:58:47;19.40;99.90
4749;DHT22;2388;53.582;9.962;2022-09-09T13:03:47;19.30;99.90
4749;DHT22;2388;53.582;9.962;2022-09-09T13:06:19;19.30;99.90
4749;DHT22;2388;53.582;9.962;2022-09-09T13:08:45;19.30;99.90
4749;DHT22;2388;53.582;9.962;2022-09-09T13:11:14;19.20;99.90
4749;DHT22;2388;53.582;9.962;2022-09-09T13:13:42;19.20;99.90
4749;DHT22;2388;53.582;9.962;2022-09-09T13:16:29;19.20;99.90
4749;DHT22;2388;53.582;9.962;2022-09-09T13:21:35;19.10;99.90
4749;DHT22;2388;53.582;9.962;2022-09-09T13:24:04;19.10;99.90
4749;DHT22;2388;53.582;9.962;2022-09-09T13:26:33;19.10;99.90
4749;DHT22;2388;53.582;9.962;2022-09-09T13:29:19;19.00;99.90
4749;DHT22;2388;53.582;9.962;2022-09-09T13:31:45;18.90;99.90
4749;DHT22;2388;53.582;9.962;2022-09-09T13:37:00;18.50;99.90
4749;DHT22;2388;53.582;9.962;2022-09-09T13:39:32;18.30;99.90
4749;DHT22;2388;53.582;9.962;2022-09-09T13:41:58;18.10;99.90
4749;DHT22;2388;53.582;9.962;2022-09-09T13:44:27;17.90;99.90
4749;DHT22;2388;53.582;9.962;2022-09-09T13:47:06;17.80;99.90
4749;DHT22;2388;53.582;9.962;2022-09-09T13:49:41;17.70;99.90
4749;DHT22;2388;53.582;9.962;2022-09-09T13:52:15;17.70;99.90
4749;DHT22;2388;53.582;9.962;2022-09-09T13:54:42;17.70;99.90
4749;DHT22;2388;53.582;9.962;2022-09-09T13:57:23;17.60;99.90
4749;DHT22;2388;53.582;9.962;2022-09-09T13:59:49;17.70;99.90
4749;DHT22;2388;53.582;9.962;2022-09-09T14:02:16;17.70;99.90
4749;DHT22;2388;53.582;9.962;2022-09-09T14:04:42;17.60;99.90
4749;DHT22;2388;53.582;9.962;2022-09-09T14:07:18;17.70;99.90
4749;DHT22;2388;53.582;9.962;2022-09-09T14:09:44;17.70;99.90
4749;DHT22;2388;53.582;9.962;2022-09-09T14:12:14;17.70;99.90
4749;DHT22;2388;53.582;9.962;2022-09-09T14:14:41;17.70;99.90
4749;DHT22;2388;53.582;9.962;2022-09-09T14:17:08;17.70;99.90
4749;DHT22;2388;53.582;9.962;2022-09-09T14:19:33;17.70;99.90
4749;DHT22;2388;53.582;9.962;2022-09-09T14:21:59;17.70;99.90
4749;DHT22;2388;53.582;9.962;2022-09-09T14:24:25;17.70;99.90
4749;DHT22;2388;53.582;9.962;2022-09-09T14:26:50;17.70;99.90
4749;DHT22;2388;53.582;9.962;2022-09-09T14:29:16;17.70;99.90
4749;DHT22;2388;53.582;9.962;2022-09-09T14:31:42;17.70;99.90
4749;DHT22;2388;53.582;9.962;2022-09-09T14:34:07;17.70;99.90
4749;DHT22;2388;53.582;9.962;2022-09-09T14:36:33;17.70;99.90
4749;DHT22;2388;53.582;9.962;2022-09-09T14:38:58;17.60;99.90
4749;DHT22;2388;53.582;9.962;2022-09-09T14:41:24;17.70;99.90
4749;DHT22;2388;53.582;9.962;2022-09-09T14:43:51;17.70;99.90
4749;DHT22;2388;53.582;9.962;2022-09-09T14:46:18;17.70;99.90
4749;DHT22;2388;53.582;9.962;2022-09-09T14:48:45;17.70;99.90
4749;DHT22;2388;53.582;9.962;2022-09-09T14:51:24;17.70;99.90
4749;DHT22;2388;53.582;9.962;2022-09-09T14:53:54;17.70;99.90
4749;DHT22;2388;53.582;9.962;2022-09-09T14:56:22;17.70;99.90
4749;DHT22;2388;53.582;9.962;2022-09-09T14:58:48;17.60;99.90
4749;DHT22;2388;53.582;9.962;2022-09-09T15:01:16;17.60;99.90
4749;DHT22;2388;53.582;9.962;2022-09-09T15:03:48;17.60;99.90
4749;DHT22;2388;53.582;9.962;2022-09-09T15:06:15;17.60;99.90
4749;DHT22;2388;53.582;9.962;2022-09-09T15:08:42;17.60;99.90
4749;DHT22;2388;53.582;9.962;2022-09-09T15:11:10;17.50;99.90
4749;DHT22;2388;53.582;9.962;2022-09-09T15:13:36;17.50;99.90
4749;DHT22;2388;53.582;9.962;2022-09-09T15:18:34;17.40;99.90
4749;DHT22;2388;53.582;9.962;2022-09-09T15:21:04;17.50;99.90
4749;DHT22;2388;53.582;9.962;2022-09-09T15:23:33;17.40;99.90
4749;DHT22;2388;53.582;9.962;2022-09-09T15:25:59;17.40;99.90
4749;DHT22;2388;53.582;9.962;2022-09-09T15:28:25;17.40;99.90
4749;DHT22;2388;53.582;9.962;2022-09-09T15:30:52;17.30;99.90
4749;DHT22;2388;53.582;9.962;2022-09-09T15:33:19;17.30;99.90
4749;DHT22;2388;53.582;9.962;2022-09-09T15:35:44;17.20;99.90
4749;DHT22;2388;53.582;9.962;2022-09-09T15:38:10;17.10;99.90
4749;DHT22;2388;53.582;9.962;2022-09-09T15:40:36;17.10;99.90
4749;DHT22;2388;53.582;9.962;2022-09-09T15:43:02;17.10;99.90
4749;DHT22;2388;53.582;9.962;2022-09-09T15:45:29;17.10;99.90
4749;DHT22;2388;53.582;9.962;2022-09-09T15:47:56;17.10;99.90
4749;DHT22;2388;53.582;9.962;2022-09-09T15:50:21;17.10;99.90
4749;DHT22;2388;53.582;9.962;2022-09-09T15:52:48;17.10;99.90
4749;DHT22;2388;53.582;9.962;2022-09-09T15:55:13;17.20;99.90
4749;DHT22;2388;53.582;9.962;2022-09-09T15:57:39;17.10;99.90
4749;DHT22;2388;53.582;9.962;2022-09-09T16:00:06;17.10;99.90
4749;DHT22;2388;53.582;9.962;2022-09-09T16:02:32;17.10;99.90
4749;DHT22;2388;53.582;9.962;2022-09-09T16:04:58;17.20;99.90
4749;DHT22;2388;53.582;9.962;2022-09-09T16:07:23;17.10;99.90
4749;DHT22;2388;53.582;9.962;2022-09-09T16:09:49;17.10;99.90
4749;DHT22;2388;53.582;9.962;2022-09-09T16:12:18;17.10;99.90
4749;DHT22;2388;53.582;9.962;2022-09-09T16:14:43;17.10;99.90
4749;DHT22;2388;53.582;9.962;2022-09-09T16:17:10;17.10;99.90
4749;DHT22;2388;53.582;9.962;2022-09-09T16:19:36;17.10;99.90
4749;DHT22;2388;53.582;9.962;2022-09-09T16:22:02;17.10;99.90
4749;DHT22;2388;53.582;9.962;2022-09-09T16:24:28;17.10;99.90
4749;DHT22;2388;53.582;9.962;2022-09-09T16:26:54;17.10;99.90
4749;DHT22;2388;53.582;9.962;2022-09-09T16:29:21;17.20;99.90
4749;DHT22;2388;53.582;9.962;2022-09-09T16:31:51;17.20;99.90
4749;DHT22;2388;53.582;9.962;2022-09-09T16:34:17;17.20;99.90
4749;DHT22;2388;53.582;9.962;2022-09-09T16:36:44;17.20;99.90
4749;DHT22;2388;53.582;9.962;2022-09-09T16:39:13;17.20;99.90
4749;DHT22;2388;53.582;9.962;2022-09-09T16:41:40;17.20;99.90
4749;DHT22;2388;53.582;9.962;2022-09-09T16:44:07;17.20;99.90
4749;DHT22;2388;53.582;9.962;2022-09-09T16:46:36;17.20;99.90
4749;DHT22;2388;53.582;9.962;2022-09-09T16:49:03;17.20;99.90
4749;DHT22;2388;53.582;9.962;2022-09-09T16:51:38;17.20;99.90
4749;DHT22;2388;53.582;9.962;2022-09-09T16:54:06;17.20;99.90
4749;DHT22;2388;53.582;9.962;2022-09-09T16:56:33;17.20;99.90
4749;DHT22;2388;53.582;9.962;2022-09-09T16:59:01;17.20;99.90
4749;DHT22;2388;53.582;9.962;2022-09-09T17:01:30;17.10;99.90
4749;DHT22;2388;53.582;9.962;2022-09-09T17:03:57;17.10;99.90
4749;DHT22;2388;53.582;9.962;2022-09-09T17:06:23;17.10;99.90
4749;DHT22;2388;53.582;9.962;2022-09-09T17:09:00;17.20;99.90
4749;DHT22;2388;53.582;9.962;2022-09-09T17:11:27;17.20;99.90
4749;DHT22;2388;53.582;9.962;2022-09-09T17:13:53;17.20;99.90
4749;DHT22;2388;53.582;9.962;2022-09-09T17:16:21;17.20;99.90
4749;DHT22;2388;53.582;9.962;2022-09-09T17:18:51;17.10;99.90
4749;DHT22;2388;53.582;9.962;2022-09-09T17:21:18;17.10;99.90
4749;DHT22;2388;53.582;9.962;2022-09-09T17:23:44;17.10;99.90
4749;DHT22;2388;53.582;9.962;2022-09-09T17:26:13;17.20;99.90
4749;DHT22;2388;53.582;9.962;2022-09-09T17:28:40;17.10;99.90
4749;DHT22;2388;53.582;9.962;2022-09-09T17:31:08;17.10;99.90
4749;DHT22;2388;53.582;9.962;2022-09-09T17:33:35;17.10;99.90
4749;DHT22;2388;53.582;9.962;2022-09-09T17:36:07;17.10;99.90
4749;DHT22;2388;53.582;9.962;2022-09-09T17:38:33;17.10;99.90
4749;DHT22;2388;53.582;9.962;2022-09-09T17:44:05;17.20;99.90
4749;DHT22;2388;53.582;9.962;2022-09-09T17:46:36;17.20;99.90
4749;DHT22;2388;53.582;9.962;2022-09-09T17:49:05;17.10;99.90
4749;DHT22;2388;53.582;9.962;2022-09-09T17:51:32;17.10;99.90
4749;DHT22;2388;53.582;9.962;2022-09-09T17:54:00;17.10;99.90
4749;DHT22;2388;53.582;9.962;2022-09-09T17:56:28;17.10;99.90